Terminal Aerodrome Forecast
Issued by NWS Charleston, WV

Current Version | Previous Version | Text Only | Print | Product List | Glossary Off
Versions: 1 2 3 4 5 6 7 8 9 10 11 12 13 14 15 16 17 18 19 20 21 22 23

585
FTUS41 KRLX 130308 AAA
TAFPKB
TAF AMD
KPKB 130308Z 1303/1324 28011G17KT 6SM -SHSN BKN035
      TEMPO 1303/1305 3SM -SN BKN025
     FM130500 29010KT P6SM BKN035
     FM131000 28007KT P6SM BKN035
     FM131500 25008G14KT P6SM BKN070=

USA.gov is the U.S. government's official web portal to all federal, state and local government web resources and services.